Time;durP1;ratioP1;P1;durP2;ratioP2;P2;SDS_P1;SDS_P2;PMS_P1;PMS_P2;Temp;Humidity;BMP_temperature;BMP_pressure;BME280_temperature;BME280_humidity;BME280_pressure;Samples;Min_cycle;Max_cycle;Signal;HPM_P1;HPM_P2
2022/06/17 09:16:23;;;;;;;5.93;2.30;;;;;;;;;;6295380;22;20189;-93
2022/06/17 09:19:30;;;;;;;5.53;2.25;;;;;;;;;;6277194;22;20172;-94
2022/06/17 09:26:59;;;;;;;4.00;2.10;;;;;;;;;;6296002;22;20601;-92
2022/06/17 09:30:06;;;;;;;9.05;2.47;;;;;;;;;;6275866;22;20656;-93
2022/06/17 09:33:37;;;;;;;8.80;2.92;;;;;;;;;;6279928;22;20172;-94
2022/06/17 09:37:04;;;;;;;4.95;2.17;;;;;;;;;;6280540;22;20161;-92
2022/06/17 09:40:32;;;;;;;6.07;2.28;;;;;;;;;;6278715;22;20161;-93
2022/06/17 09:43:55;;;;;;;4.70;2.50;;;;;;;;;;6279925;22;20177;-93
2022/06/17 09:47:38;;;;;;;5.40;2.28;;;;;;;;;;6279515;22;20149;-93
2022/06/17 10:01:48;;;;;;;5.15;2.30;;;;;;;;;;6277854;22;20200;-93
2022/06/17 10:05:13;;;;;;;6.40;2.53;;;;;;;;;;6279313;22;20209;-93
2022/06/17 10:08:35;;;;;;;6.07;2.38;;;;;;;;;;6278310;22;20165;-94
2022/06/17 10:12:05;;;;;;;5.82;2.40;;;;;;;;;;6278714;22;20164;-93
2022/06/17 10:15:31;;;;;;;8.35;2.60;;;;;;;;;;6278260;22;20231;-94
2022/06/17 10:18:48;;;;;;;5.78;2.60;;;;;;;;;;6283201;22;20173;-92
2022/06/17 10:25:56;;;;;;;4.00;2.10;;;;;;;;;;6277931;22;20204;-94
2022/06/17 10:29:36;;;;;;;5.88;2.47;;;;;;;;;;6278533;22;20217;-95
2022/06/17 10:32:55;;;;;;;5.10;2.55;;;;;;;;;;6279309;22;20153;-95
2022/06/17 17:26:52;;;;;;;5.15;1.88;;;;;;;;;;6295524;22;20175;-94
2022/06/17 17:29:58;;;;;;;8.23;3.58;;;;;;;;;;6277896;22;20193;-93
2022/06/17 17:33:04;;;;;;;3.97;1.70;;;;;;;;;;6278854;22;20170;-93
2022/06/17 17:36:12;;;;;;;4.45;1.77;;;;;;;;;;6280918;22;20620;-95
2022/06/17 17:39:17;;;;;;;9.55;2.15;;;;;;;;;;6279238;22;20173;-92
2022/06/17 17:45:55;;;;;;;4.90;1.90;;;;;;;;;;6278988;22;20177;-94
2022/06/17 18:01:19;;;;;;;8.20;2.50;;;;;;;;;;6279003;22;20170;-93
2022/06/17 19:25:10;;;;;;;4.90;3.08;;;;;;;;;;6243084;22;20433;-93
2022/06/17 19:28:21;;;;;;;6.13;3.47;;;;;;;;;;6248088;22;20171;-92
2022/06/17 19:31:29;;;;;;;4.57;2.83;;;;;;;;;;6248071;22;20185;-93
2022/06/17 19:34:36;;;;;;;6.80;2.80;;;;;;;;;;6249060;22;20154;-92
2022/06/17 19:37:44;;;;;;;6.60;2.60;;;;;;;;;;6246589;22;20237;-93
2022/06/17 19:41:42;;;;;;;6.07;2.70;;;;;;;;;;6248322;22;20217;-92
2022/06/17 19:44:22;;;;;;;8.07;3.08;;;;;;;;;;6249507;22;20150;-91
2022/06/17 19:47:29;;;;;;;5.88;3.05;;;;;;;;;;6248947;22;20210;-93
2022/06/17 19:50:34;;;;;;;4.15;2.30;;;;;;;;;;6248421;22;20182;-93
2022/06/17 19:53:53;;;;;;;12.18;2.78;;;;;;;;;;6249162;22;20171;-92
2022/06/17 19:57:00;;;;;;;8.00;2.70;;;;;;;;;;6248178;22;20233;-92
2022/06/17 20:00:09;;;;;;;6.53;2.75;;;;;;;;;;6249709;22;20179;-93
2022/06/17 20:03:19;;;;;;;7.97;3.13;;;;;;;;;;6247378;22;20167;-92
2022/06/17 20:06:26;;;;;;;8.32;3.67;;;;;;;;;;6248041;22;20170;-91
2022/06/17 20:09:32;;;;;;;9.38;3.25;;;;;;;;;;6246807;22;20162;-92
2022/06/17 20:12:38;;;;;;;6.70;2.92;;;;;;;;;;6245353;22;20178;-90
2022/06/17 20:15:46;;;;;;;6.50;3.00;;;;;;;;;;6247158;22;20170;-92
2022/06/17 20:18:52;;;;;;;4.78;2.92;;;;;;;;;;6245988;22;20163;-91
2022/06/17 20:21:59;;;;;;;5.63;2.60;;;;;;;;;;6247493;22;20159;-92
2022/06/17 20:25:05;;;;;;;6.43;2.83;;;;;;;;;;6248380;22;20162;-91
2022/06/17 20:28:15;;;;;;;7.32;2.70;;;;;;;;;;6245835;22;20190;-90
2022/06/17 20:31:25;;;;;;;6.70;2.90;;;;;;;;;;6247566;23;20198;-92
2022/06/17 20:34:36;;;;;;;4.70;2.92;;;;;;;;;;6252488;22;20170;-92
2022/06/17 20:37:43;;;;;;;3.85;2.70;;;;;;;;;;6249032;23;20147;-90
2022/06/17 20:44:17;;;;;;;6.45;2.95;;;;;;;;;;6264993;23;20293;-93
2022/06/17 20:50:56;;;;;;;9.25;2.75;;;;;;;;;;6247707;23;20196;-92
2022/06/17 20:54:02;;;;;;;6.68;3.40;;;;;;;;;;6247323;22;20158;-91
2022/06/17 21:00:40;;;;;;;6.07;3.58;;;;;;;;;;6247747;22;20233;-91
2022/06/17 21:03:50;;;;;;;8.20;3.47;;;;;;;;;;6251581;22;20158;-90
2022/06/17 21:06:56;;;;;;;8.60;3.97;;;;;;;;;;6247025;22;20171;-92
2022/06/17 21:10:03;;;;;;;5.53;3.88;;;;;;;;;;6246926;23;20178;-92
2022/06/17 21:13:13;;;;;;;7.22;3.83;;;;;;;;;;6250342;22;20174;-91
2022/06/17 21:16:25;;;;;;;7.63;3.90;;;;;;;;;;6251335;22;20162;-92
2022/06/17 21:19:48;;;;;;;7.03;3.70;;;;;;;;;;6250184;22;20170;-91
2022/06/17 21:22:56;;;;;;;7.97;3.80;;;;;;;;;;6249801;22;20194;-92
2022/06/17 21:26:05;;;;;;;7.35;3.95;;;;;;;;;;6248275;22;20229;-93
2022/06/17 21:29:16;;;;;;;11.52;4.20;;;;;;;;;;6267909;22;20499;-92
2022/06/17 21:32:22;;;;;;;6.75;3.72;;;;;;;;;;6249565;22;20169;-90
2022/06/17 21:35:29;;;;;;;7.05;4.13;;;;;;;;;;6247793;22;20186;-90
2022/06/17 21:38:54;;;;;;;7.22;4.55;;;;;;;;;;6248620;22;20150;-92
2022/06/17 21:42:05;;;;;;;6.95;4.85;;;;;;;;;;6249732;22;20153;-92
2022/06/17 21:45:15;;;;;;;9.48;4.70;;;;;;;;;;6245588;22;20163;-92
2022/06/17 21:48:22;;;;;;;8.70;4.85;;;;;;;;;;6246061;22;20147;-93
2022/06/17 21:51:29;;;;;;;8.65;4.65;;;;;;;;;;6245242;22;20241;-90
2022/06/17 21:54:40;;;;;;;9.90;4.80;;;;;;;;;;6246834;22;20169;-91
2022/06/17 22:59:42;;;;;;;9.60;4.13;;;;;;;;;;6272704;22;20214;-92
2022/06/17 23:02:48;;;;;;;7.60;4.00;;;;;;;;;;6273635;22;20215;-92
2022/06/17 23:05:53;;;;;;;7.13;4.03;;;;;;;;;;6275425;22;20145;-90
2022/06/17 23:08:58;;;;;;;5.90;3.92;;;;;;;;;;6274504;22;20261;-92
2022/06/17 23:12:04;;;;;;;8.77;4.45;;;;;;;;;;6276872;22;20198;-91
2022/06/17 23:15:13;;;;;;;9.32;4.60;;;;;;;;;;6275590;22;20165;-92
2022/06/17 23:21:49;;;;;;;11.52;4.78;;;;;;;;;;6276261;22;20240;-92
2022/06/17 23:24:55;;;;;;;9.77;4.72;;;;;;;;;;6274799;22;20154;-90
2022/06/17 23:28:00;;;;;;;7.85;4.78;;;;;;;;;;6276516;22;20165;-92
2022/06/17 23:31:12;;;;;;;8.55;4.72;;;;;;;;;;6275822;22;20241;-92
2022/06/17 23:34:19;;;;;;;8.43;5.03;;;;;;;;;;6274732;22;20248;-93
2022/06/17 23:37:24;;;;;;;10.02;5.40;;;;;;;;;;6275494;22;20169;-91
2022/06/17 23:40:30;;;;;;;8.23;4.60;;;;;;;;;;6292791;22;20312;-92
2022/06/17 23:43:35;;;;;;;9.98;7.18;;;;;;;;;;6272874;22;20176;-92
2022/06/17 23:46:44;;;;;;;8.90;4.68;;;;;;;;;;6273143;22;20211;-92
2022/06/17 23:49:52;;;;;;;9.23;4.00;;;;;;;;;;6273492;22;20162;-92
2022/06/17 23:52:59;;;;;;;6.10;3.97;;;;;;;;;;6274729;22;20169;-94
2022/06/17 23:56:06;;;;;;;8.27;5.00;;;;;;;;;;6273847;22;20205;-91
2022/06/17 23:59:12;;;;;;;5.72;3.67;;;;;;;;;;6271891;22;20275;-91
